Seward, Pennsylvania
Current Conditions -  °F | °C
As of 7:54 AM on Tuesday 21 Oct 2014 (Local Time) from KJST Reporting Station
Haze Haze  
Wind Chill: 44°   Ceiling: 200
Heat Index: 47°   Visibility: 0.75mi
Dew Point: 46°   Wind: 7mph
Humidity: 97%   Direction: 260°W
Pressure: 29.85"   Gusts: NA
Location:  40.41°N, 79.02°W
Report Text: KJST 211154Z AUTO 26006KT 3/4SM BR VV002 08/08 A2985 RMK AO2 SLP112 60002 70002 T00830078 10094 20083 53005
Loading
Personal Weather Stations






























Interactive Weather Map
Tropical Storm Tracking
New forecast layout! Learn more

10-Day Weather Forecast

Advertisements
Track Severe Weather on mobile